createdAt,value
2022-11-07T00:02:01.086Z,13.17
2022-11-07T00:04:29.784Z,16.90
2022-11-07T00:06:59.220Z,17.37
2022-11-07T00:09:27.541Z,14.50
2022-11-07T00:11:55.973Z,12.97
2022-11-07T00:14:23.813Z,12.23
2022-11-07T00:16:51.991Z,14.03
2022-11-07T00:19:21.841Z,12.80
2022-11-07T00:21:50.553Z,9.17
2022-11-07T00:24:20.812Z,10.73
2022-11-07T00:26:49.093Z,11.73
2022-11-07T00:29:19.181Z,11.80
2022-11-07T00:31:48.537Z,10.50
2022-11-07T00:34:16.791Z,12.77
2022-11-07T00:36:44.746Z,11.30
2022-11-07T00:39:12.752Z,11.33
2022-11-07T00:41:42.117Z,13.27
2022-11-07T00:44:09.991Z,11.90
2022-11-07T00:46:37.857Z,13.50
2022-11-07T00:49:05.702Z,14.23
2022-11-07T00:51:33.533Z,15.93
2022-11-07T00:54:03.099Z,16.33
2022-11-07T00:56:30.994Z,16.47
2022-11-07T00:59:01.124Z,16.33
2022-11-07T01:01:31.520Z,14.43
2022-11-07T01:04:17.306Z,15.00
2022-11-07T01:06:46.442Z,13.70
2022-11-07T01:09:15.688Z,17.63
2022-11-07T01:11:44.469Z,12.13
2022-11-07T01:14:16.159Z,14.30
2022-11-07T01:16:44.384Z,14.73
2022-11-07T01:19:12.807Z,13.23
2022-11-07T01:21:41.502Z,11.53
2022-11-07T01:24:11.660Z,11.50
2022-11-07T01:26:40.886Z,12.00
2022-11-07T01:29:09.301Z,10.80
2022-11-07T01:31:38.533Z,9.10
2022-11-07T01:34:06.915Z,9.70
2022-11-07T01:36:35.161Z,7.60
2022-11-07T01:39:03.108Z,7.70
2022-11-07T01:41:33.282Z,6.97
2022-11-07T01:44:03.689Z,6.57
2022-11-07T01:46:33.876Z,7.27
2022-11-07T01:49:09.932Z,8.30
2022-11-07T01:51:42.646Z,5.60
2022-11-07T01:54:11.799Z,8.10
2022-11-07T01:56:43.118Z,5.37
2022-11-07T01:59:14.044Z,7.03
2022-11-07T02:01:42.656Z,8.80
2022-11-07T02:04:13.005Z,6.97
2022-11-07T02:06:46.046Z,5.80
2022-11-07T02:09:14.102Z,6.33
2022-11-07T02:11:42.306Z,6.70
2022-11-07T02:14:15.752Z,9.80
2022-11-07T02:16:44.138Z,7.23
2022-11-07T02:19:22.783Z,7.17
2022-11-07T02:22:00.136Z,7.33
2022-11-07T02:24:32.784Z,7.23
2022-11-07T02:27:04.521Z,7.20
2022-11-07T02:29:34.489Z,8.10
2022-11-07T02:32:03.582Z,9.23
2022-11-07T02:34:31.592Z,10.23
2022-11-07T02:37:00.929Z,11.97
2022-11-07T02:39:30.444Z,10.70
2022-11-07T02:42:00.397Z,10.77
2022-11-07T02:44:29.390Z,12.37
2022-11-07T02:46:57.722Z,14.20
2022-11-07T02:49:25.766Z,10.10
2022-11-07T02:51:53.666Z,10.07
2022-11-07T02:54:21.549Z,12.87
2022-11-07T02:56:50.755Z,12.27
2022-11-07T02:59:21.742Z,9.90
2022-11-07T03:01:52.278Z,10.30
2022-11-07T03:04:20.399Z,8.60
2022-11-07T03:06:48.235Z,9.17
2022-11-07T03:09:16.265Z,8.97
2022-11-07T03:11:44.124Z,7.90
2022-11-07T03:14:13.373Z,9.80
2022-11-07T03:16:41.260Z,9.17
2022-11-07T03:19:09.126Z,10.30
2022-11-07T03:21:36.984Z,8.60
2022-11-07T03:24:05.312Z,11.13
2022-11-07T03:26:33.179Z,7.90
2022-11-07T03:29:01.038Z,10.90
2022-11-07T03:31:30.241Z,7.23
2022-11-07T03:33:58.110Z,9.97
2022-11-07T03:36:25.986Z,8.07
2022-11-07T03:38:53.865Z,8.33
2022-11-07T03:41:21.751Z,7.60
2022-11-07T03:43:49.662Z,12.53
2022-11-07T03:46:17.920Z,8.90
2022-11-07T03:48:47.312Z,8.20
2022-11-07T03:51:15.217Z,9.80
2022-11-07T03:53:43.077Z,10.77
2022-11-07T03:56:13.506Z,10.70
2022-11-07T03:58:41.336Z,9.97
2022-11-07T04:01:10.476Z,11.47
2022-11-07T04:03:38.507Z,9.70
2022-11-07T04:06:08.322Z,9.37
2022-11-07T04:08:36.827Z,12.70
2022-11-07T04:11:04.724Z,9.80
2022-11-07T04:13:50.218Z,8.20
2022-11-07T04:16:39.962Z,9.33
2022-11-07T04:19:07.824Z,9.90
2022-11-07T04:21:37.104Z,11.30
2022-11-07T04:24:05.576Z,11.20
2022-11-07T04:26:50.893Z,17.77
2022-11-07T04:29:18.815Z,17.33
2022-11-07T04:31:46.714Z,14.53
2022-11-07T04:34:14.610Z,12.60
2022-11-07T04:36:43.841Z,15.83
2022-11-07T04:39:11.744Z,12.23
2022-11-07T04:41:39.646Z,11.50
2022-11-07T04:44:07.540Z,12.23
2022-11-07T04:46:35.451Z,12.00
2022-11-07T04:49:03.367Z,10.17
2022-11-07T04:51:31.479Z,13.50
2022-11-07T04:54:00.724Z,11.50
2022-11-07T04:56:34.201Z,9.83
2022-11-07T04:59:02.445Z,11.07
2022-11-07T05:01:30.479Z,10.37
2022-11-07T05:03:58.778Z,12.47
2022-11-07T05:06:26.881Z,7.60
2022-11-07T05:08:54.759Z,9.47
2022-11-07T05:11:24.068Z,9.20
2022-11-07T05:13:51.958Z,9.73
2022-11-07T05:16:20.156Z,9.77
2022-11-07T05:18:48.041Z,8.60
2022-11-07T05:21:15.942Z,9.33
2022-11-07T05:23:42.850Z,9.93
2022-11-07T05:26:10.921Z,8.80
2022-11-07T05:28:40.173Z,7.43
2022-11-07T05:31:09.619Z,7.97
2022-11-07T05:33:37.892Z,9.50
2022-11-07T05:36:14.244Z,11.87
2022-11-07T05:38:43.134Z,11.10
2022-11-07T05:41:11.664Z,8.00
2022-11-07T05:43:41.521Z,8.03
2022-11-07T05:46:09.677Z,8.40
2022-11-07T05:48:38.528Z,7.17
2022-11-07T05:51:08.497Z,6.57
2022-11-07T05:53:36.948Z,7.83
2022-11-07T05:56:05.174Z,12.97
2022-11-07T05:58:33.137Z,7.73
2022-11-07T06:01:07.450Z,7.97
2022-11-07T06:03:35.631Z,12.70
2022-11-07T06:06:03.566Z,10.93
2022-11-07T06:08:31.456Z,9.77
2022-11-07T06:10:59.539Z,7.70
2022-11-07T06:13:27.442Z,10.87
2022-11-07T06:15:55.384Z,7.10
2022-11-07T06:18:24.696Z,6.73
2022-11-07T06:20:53.008Z,5.57
2022-11-07T06:23:20.988Z,7.83
2022-11-07T06:25:49.410Z,6.80
2022-11-07T06:28:17.285Z,7.23
2022-11-07T06:30:45.674Z,6.37
2022-11-07T06:33:15.731Z,7.00
2022-11-07T06:35:46.074Z,4.70
2022-11-07T06:38:15.504Z,5.70
2022-11-07T06:40:43.860Z,5.93
2022-11-07T06:43:14.716Z,5.43
2022-11-07T06:45:43.605Z,6.43
2022-11-07T06:48:12.320Z,6.10
2022-11-07T06:50:40.737Z,5.60
2022-11-07T06:53:13.275Z,6.07
2022-11-07T06:55:41.711Z,6.67
2022-11-07T06:58:09.855Z,5.90
2022-11-07T07:00:38.293Z,6.20
2022-11-07T07:03:06.712Z,7.23
2022-11-07T07:05:34.889Z,4.27
2022-11-07T07:08:03.052Z,4.70
2022-11-07T07:10:32.955Z,4.40
2022-11-07T07:13:01.540Z,5.40
2022-11-07T07:15:32.727Z,5.10
2022-11-07T07:18:10.233Z,5.03
2022-11-07T07:20:38.170Z,5.23
2022-11-07T07:23:06.078Z,6.90
2022-11-07T07:25:35.348Z,6.53
2022-11-07T07:28:03.257Z,5.70
2022-11-07T07:30:31.285Z,6.73
2022-11-07T07:32:59.223Z,7.60
2022-11-07T07:35:27.149Z,5.27
2022-11-07T07:37:55.207Z,6.80
2022-11-07T07:40:23.312Z,5.00
2022-11-07T07:42:52.564Z,7.20
2022-11-07T07:45:20.475Z,6.07
2022-11-07T07:47:48.424Z,8.63
2022-11-07T07:50:16.418Z,5.93
2022-11-07T07:52:44.763Z,7.23
2022-11-07T07:55:12.714Z,5.10
2022-11-07T07:57:42.006Z,8.33
2022-11-07T08:00:13.010Z,11.60
2022-11-07T08:02:43.507Z,10.07
2022-11-07T08:05:12.722Z,5.83
2022-11-07T08:07:46.601Z,3.67
2022-11-07T08:10:40.282Z,3.90
2022-11-07T08:13:02.635Z,5.87
2022-11-07T08:15:31.920Z,4.20
2022-11-07T08:18:04.833Z,11.60
2022-11-07T08:20:32.778Z,6.00
2022-11-07T08:23:04.331Z,5.37
2022-11-07T08:25:32.513Z,3.10
2022-11-07T08:28:00.783Z,4.50
2022-11-07T08:30:31.624Z,3.80
2022-11-07T08:33:03.128Z,10.20
2022-11-07T08:35:31.304Z,13.63
2022-11-07T08:37:59.436Z,9.57
2022-11-07T08:40:28.135Z,5.70
2022-11-07T08:43:01.339Z,5.73
2022-11-07T08:45:29.294Z,2.30
2022-11-07T08:48:01.751Z,3.63
2022-11-07T08:50:29.703Z,8.50
2022-11-07T08:53:02.710Z,1.80
2022-11-07T08:55:31.597Z,4.53
2022-11-07T08:58:00.884Z,6.00
2022-11-07T09:00:29.189Z,5.80
2022-11-07T09:05:46.637Z,2.00
2022-11-07T09:08:14.525Z,2.03
2022-11-07T09:10:42.490Z,5.23
2022-11-07T09:13:10.590Z,3.10
2022-11-07T09:15:38.534Z,6.50
2022-11-07T09:18:07.584Z,9.13
2022-11-07T09:20:35.706Z,7.87
2022-11-07T09:23:04.950Z,5.43
2022-11-07T09:25:32.898Z,2.73
2022-11-07T09:28:03.826Z,3.50
2022-11-07T09:30:31.841Z,2.67
2022-11-07T09:32:59.807Z,10.77
2022-11-07T09:35:28.074Z,4.40
2022-11-07T09:37:56.355Z,4.77
2022-11-07T09:40:40.259Z,3.27
2022-11-07T09:43:31.523Z,5.53
2022-11-07T09:46:09.047Z,5.93
2022-11-07T09:48:44.975Z,7.50
2022-11-07T09:51:26.657Z,3.33
2022-11-07T09:54:00.553Z,4.87
2022-11-07T09:56:32.767Z,5.50
2022-11-07T09:59:11.105Z,3.87
2022-11-07T10:01:42.313Z,5.00
2022-11-07T10:04:25.433Z,3.90
2022-11-07T10:06:58.519Z,6.07
2022-11-07T10:09:36.916Z,5.13
2022-11-07T10:12:18.468Z,2.57
2022-11-07T10:14:54.356Z,3.93
2022-11-07T10:17:29.348Z,7.03
2022-11-07T10:20:09.308Z,5.53
2022-11-07T10:22:50.951Z,2.30
2022-11-07T10:25:26.688Z,6.57
2022-11-07T10:28:10.435Z,5.77
2022-11-07T10:30:38.393Z,5.23
2022-11-07T10:33:14.887Z,5.30
2022-11-07T10:35:47.007Z,3.40
2022-11-07T10:38:23.362Z,4.83
2022-11-07T10:40:52.582Z,5.03
2022-11-07T10:43:30.087Z,2.50
2022-11-07T10:45:58.563Z,10.57
2022-11-07T10:48:29.480Z,3.13
2022-11-07T10:50:58.291Z,4.70
2022-11-07T10:53:28.085Z,4.20
2022-11-07T10:55:56.848Z,2.40
2022-11-07T10:58:28.491Z,4.30
2022-11-07T11:01:02.507Z,6.73
2022-11-07T11:03:43.918Z,4.40
2022-11-07T11:06:22.787Z,10.63
2022-11-07T11:08:52.836Z,12.43
2022-11-07T11:11:30.686Z,2.40
2022-11-07T11:14:08.394Z,4.77
2022-11-07T11:16:39.987Z,6.00
2022-11-07T11:19:19.037Z,4.03
2022-11-07T11:21:48.985Z,4.07
2022-11-07T11:24:32.338Z,4.13
2022-11-07T11:27:03.075Z,7.87
2022-11-07T11:29:39.786Z,4.63
2022-11-07T11:32:17.025Z,6.00
2022-11-07T11:34:54.791Z,3.83
2022-11-07T11:37:24.883Z,6.73
2022-11-07T11:40:08.499Z,5.60
2022-11-07T11:42:46.582Z,4.27
2022-11-07T11:45:21.384Z,10.37
2022-11-07T11:47:58.255Z,1.87
2022-11-07T11:50:32.821Z,6.53
2022-11-07T11:53:01.246Z,7.97
2022-11-07T11:55:39.620Z,7.70
2022-11-07T11:58:18.422Z,2.00
2022-11-07T12:00:53.303Z,6.87
2022-11-07T12:03:40.678Z,3.00
2022-11-07T12:06:17.370Z,3.17
2022-11-07T12:09:16.994Z,7.67
2022-11-07T12:11:58.821Z,3.77
2022-11-07T12:14:56.992Z,4.77
2022-11-07T12:17:35.236Z,5.00
2022-11-07T12:20:12.721Z,2.53
2022-11-07T12:22:53.094Z,4.00
2022-11-07T12:25:26.834Z,2.00
2022-11-07T12:28:01.398Z,8.80
2022-11-07T12:30:41.639Z,7.93
2022-11-07T12:33:17.932Z,3.70
2022-11-07T12:35:51.189Z,5.80
2022-11-07T12:38:37.654Z,5.70
2022-11-07T12:41:12.840Z,7.90
2022-11-07T12:43:51.393Z,3.03
2022-11-07T12:46:26.746Z,5.40
2022-11-07T12:49:10.869Z,6.00
2022-11-07T12:51:51.066Z,10.13
2022-11-07T12:54:41.360Z,4.53
2022-11-07T12:57:17.791Z,7.40
2022-11-07T12:59:50.154Z,3.20
2022-11-07T13:02:30.187Z,3.23
2022-11-07T13:05:05.610Z,6.03
2022-11-07T13:07:40.570Z,6.43
2022-11-07T13:10:15.911Z,6.83
2022-11-07T13:12:51.691Z,6.33
2022-11-07T13:15:20.112Z,5.97
2022-11-07T13:17:48.414Z,4.53
2022-11-07T13:20:31.772Z,2.80
2022-11-07T13:23:01.047Z,5.00
2022-11-07T13:25:31.891Z,5.83
2022-11-07T13:28:28.414Z,8.37
2022-11-07T13:31:03.719Z,7.10
2022-11-07T13:33:36.180Z,6.70
2022-11-07T13:36:24.743Z,2.43
2022-11-07T13:38:57.542Z,9.43
2022-11-07T13:41:26.274Z,6.63
2022-11-07T13:43:58.873Z,3.17
2022-11-07T13:46:31.223Z,4.43
2022-11-07T13:49:03.553Z,4.73
2022-11-07T13:51:38.633Z,7.20
2022-11-07T13:54:20.257Z,3.80
2022-11-07T13:56:56.208Z,5.03
2022-11-07T13:59:39.425Z,2.07
2022-11-07T14:02:07.933Z,3.00
2022-11-07T14:04:44.621Z,3.10
2022-11-07T14:07:26.761Z,3.33
2022-11-07T14:09:59.797Z,5.83
2022-11-07T14:12:28.671Z,9.73
2022-11-07T14:15:00.059Z,2.97
2022-11-07T14:17:33.047Z,4.40
2022-11-07T14:20:08.376Z,8.50
2022-11-07T14:22:38.489Z,4.10
2022-11-07T14:25:22.888Z,4.70
2022-11-07T14:27:51.300Z,8.83
2022-11-07T14:30:21.188Z,4.80
2022-11-07T14:32:51.080Z,2.40
2022-11-07T14:35:25.143Z,6.30
2022-11-07T14:37:54.528Z,6.67
2022-11-07T14:40:22.772Z,9.10
2022-11-07T14:42:52.342Z,2.60
2022-11-07T14:45:40.683Z,8.23
2022-11-07T14:48:12.177Z,7.53
2022-11-07T14:50:40.767Z,1.90
2022-11-07T14:53:15.111Z,7.87
2022-11-07T14:55:46.303Z,5.30
2022-11-07T14:58:23.561Z,7.10
2022-11-07T15:00:56.698Z,5.10
2022-11-07T15:03:32.192Z,9.47
2022-11-07T15:06:00.236Z,2.80
2022-11-07T15:08:32.103Z,6.30
2022-11-07T15:11:06.895Z,3.50
2022-11-07T15:13:35.762Z,5.83
2022-11-07T15:16:07.029Z,3.93
2022-11-07T15:18:40.005Z,4.13
2022-11-07T15:21:09.794Z,6.53
2022-11-07T15:23:39.196Z,4.80
2022-11-07T15:26:13.949Z,3.03
2022-11-07T15:28:47.219Z,5.60
2022-11-07T15:31:24.098Z,4.90
2022-11-07T15:33:52.514Z,6.40
2022-11-07T15:36:20.894Z,3.33
2022-11-07T15:38:51.071Z,7.57
2022-11-07T15:41:21.947Z,3.97
2022-11-07T15:43:49.855Z,8.00
2022-11-07T15:46:24.514Z,5.33
2022-11-07T15:48:52.572Z,6.27
2022-11-07T15:51:20.566Z,3.20
2022-11-07T15:53:49.839Z,2.63
2022-11-07T15:56:22.968Z,2.63
2022-11-07T15:58:51.301Z,2.27
2022-11-07T16:01:19.456Z,1.60
2022-11-07T16:03:47.417Z,3.97
2022-11-07T16:06:20.757Z,4.27
2022-11-07T16:08:50.084Z,3.57
2022-11-07T16:11:18.000Z,11.90
2022-11-07T16:13:46.546Z,4.77
2022-11-07T16:16:20.201Z,2.77
2022-11-07T16:18:50.630Z,11.10
2022-11-07T16:21:18.647Z,3.13
2022-11-07T16:23:49.494Z,3.40
2022-11-07T16:26:26.627Z,3.10
2022-11-07T16:28:54.616Z,4.83
2022-11-07T16:31:22.642Z,4.20
2022-11-07T16:33:50.882Z,2.53
2022-11-07T16:36:22.400Z,3.37
2022-11-07T16:38:50.383Z,4.80
2022-11-07T16:41:20.119Z,10.70
2022-11-07T16:43:48.766Z,5.80
2022-11-07T16:46:19.086Z,4.00
2022-11-07T16:48:49.932Z,9.33
2022-11-07T16:51:19.990Z,2.50
2022-11-07T16:53:47.967Z,6.93
2022-11-07T16:56:25.645Z,3.40
2022-11-07T16:58:55.286Z,4.83
2022-11-07T17:01:24.380Z,1.40
2022-11-07T17:03:52.622Z,3.60
2022-11-07T17:06:26.191Z,7.10
2022-11-07T17:08:56.014Z,2.13
2022-11-07T17:11:29.584Z,4.83
2022-11-07T17:13:57.608Z,7.20
2022-11-07T17:16:30.617Z,3.50
2022-11-07T17:18:58.518Z,7.57
2022-11-07T17:21:28.762Z,3.10
2022-11-07T17:23:58.427Z,2.87
2022-11-07T17:26:30.657Z,2.50
2022-11-07T17:29:00.053Z,5.00
2022-11-07T17:31:28.111Z,6.07
2022-11-07T17:33:56.251Z,8.83
2022-11-07T17:36:35.340Z,9.17
2022-11-07T17:39:10.883Z,1.53
2022-11-07T17:41:40.848Z,6.57
2022-11-07T17:44:08.970Z,6.73
2022-11-07T17:46:43.218Z,3.07
2022-11-07T17:49:13.749Z,4.80
2022-11-07T17:51:42.397Z,4.63
2022-11-07T17:54:12.489Z,1.57
2022-11-07T17:56:42.944Z,4.00
2022-11-07T17:59:14.821Z,1.00
2022-11-07T18:01:43.465Z,2.40
2022-11-07T18:04:13.631Z,1.93
2022-11-07T18:06:43.341Z,1.50
2022-11-07T18:09:15.462Z,5.67
2022-11-07T18:11:45.454Z,1.40
2022-11-07T18:14:15.084Z,1.50
2022-11-07T18:16:43.265Z,1.90
2022-11-07T18:19:11.792Z,3.30
2022-11-07T18:21:40.019Z,1.37
2022-11-07T18:24:08.496Z,1.93
2022-11-07T18:26:38.321Z,1.90
2022-11-07T18:29:09.884Z,3.60
2022-11-07T18:31:38.411Z,2.03
2022-11-07T18:34:08.157Z,2.20
2022-11-07T18:36:38.361Z,3.17
2022-11-07T18:39:08.046Z,1.90
2022-11-07T18:41:36.300Z,1.60
2022-11-07T18:44:05.220Z,1.90
2022-11-07T18:46:34.776Z,1.50
2022-11-07T18:49:03.312Z,2.40
2022-11-07T18:51:31.490Z,2.70
2022-11-07T18:54:01.780Z,3.40
2022-11-07T18:56:30.106Z,2.07
2022-11-07T18:58:58.230Z,3.10
2022-11-07T19:01:29.021Z,2.97
2022-11-07T19:03:59.983Z,3.23
2022-11-07T19:06:30.147Z,3.10
2022-11-07T19:08:58.578Z,2.57
2022-11-07T19:11:29.314Z,3.60
2022-11-07T19:13:58.332Z,5.43
2022-11-07T19:16:26.608Z,4.73
2022-11-07T19:18:54.511Z,2.30
2022-11-07T19:21:24.404Z,2.40
2022-11-07T19:23:52.465Z,2.20
2022-11-07T19:26:20.639Z,2.30
2022-11-07T19:28:49.235Z,6.13
2022-11-07T19:31:17.463Z,4.90
2022-11-07T19:33:45.524Z,7.57
2022-11-07T19:36:15.424Z,4.47
2022-11-07T19:38:45.133Z,6.30
2022-11-07T19:41:14.518Z,4.47
2022-11-07T19:43:42.924Z,4.00
2022-11-07T19:46:12.834Z,4.43
2022-11-07T19:48:40.776Z,3.63
2022-11-07T19:51:09.304Z,3.90
2022-11-07T19:53:37.509Z,5.13
2022-11-07T19:56:11.129Z,2.83
2022-11-07T19:58:40.078Z,3.47
2022-11-07T20:01:12.700Z,2.30
2022-11-07T20:03:43.455Z,5.40
2022-11-07T20:06:12.808Z,2.80
2022-11-07T20:08:41.513Z,2.40
2022-11-07T20:11:13.293Z,2.30
2022-11-07T20:13:41.249Z,4.37
2022-11-07T20:16:09.761Z,3.30
2022-11-07T20:18:38.050Z,3.27
2022-11-07T20:21:08.071Z,2.90
2022-11-07T20:23:35.974Z,2.53
2022-11-07T20:26:06.615Z,5.43
2022-11-07T20:28:36.065Z,5.20
2022-11-07T20:31:07.843Z,3.97
2022-11-07T20:33:38.556Z,4.10
2022-11-07T20:36:09.376Z,3.30
2022-11-07T20:38:38.068Z,2.90
2022-11-07T20:41:06.785Z,3.10
2022-11-07T20:43:36.212Z,2.47
2022-11-07T20:46:06.557Z,2.70
2022-11-07T20:48:34.819Z,2.73
2022-11-07T20:51:08.454Z,2.53
2022-11-07T20:53:37.607Z,2.17
2022-11-07T20:56:06.630Z,2.33
2022-11-07T20:58:37.582Z,2.77
2022-11-07T21:01:06.247Z,1.43
2022-11-07T21:03:34.816Z,2.07
2022-11-07T21:06:03.471Z,2.00
2022-11-07T21:08:36.998Z,3.17
2022-11-07T21:11:05.679Z,2.63
2022-11-07T21:13:34.941Z,1.90
2022-11-07T21:16:03.610Z,3.03
2022-11-07T21:18:31.785Z,4.80
2022-11-07T21:21:06.890Z,2.00
2022-11-07T21:23:35.146Z,2.17
2022-11-07T21:26:07.751Z,1.90
2022-11-07T21:28:40.530Z,2.10
2022-11-07T21:31:10.955Z,2.30
2022-11-07T21:33:41.171Z,1.10
2022-11-07T21:36:11.239Z,3.33
2022-11-07T21:38:39.604Z,1.87
2022-11-07T21:41:08.663Z,1.83
2022-11-07T21:43:38.346Z,3.03
2022-11-07T21:46:14.712Z,2.40
2022-11-07T21:48:43.489Z,3.23
2022-11-07T21:51:15.079Z,1.53
2022-11-07T21:53:43.532Z,1.53
2022-11-07T21:56:16.061Z,2.93
2022-11-07T21:58:46.021Z,2.67
2022-11-07T22:01:13.972Z,2.10
2022-11-07T22:04:05.266Z,1.40
2022-11-07T22:06:30.659Z,1.63
2022-11-07T22:08:58.634Z,1.50
2022-11-07T22:11:26.557Z,1.70
2022-11-07T22:13:56.416Z,1.73
2022-11-07T22:16:24.608Z,2.20
2022-11-07T22:18:52.585Z,4.50
2022-11-07T22:21:22.313Z,3.90
2022-11-07T22:23:50.238Z,2.93
2022-11-07T22:26:21.055Z,3.70
2022-11-07T22:28:49.825Z,1.90
2022-11-07T22:31:22.427Z,2.13
2022-11-07T22:33:50.856Z,2.60
2022-11-07T22:36:19.273Z,1.73
2022-11-07T22:38:47.244Z,2.37
2022-11-07T22:41:17.556Z,1.37
2022-11-07T22:43:46.101Z,1.97
2022-11-07T22:46:16.576Z,1.70
2022-11-07T22:48:47.118Z,2.03
2022-11-07T22:51:16.950Z,1.87
2022-11-07T22:53:44.940Z,1.73
2022-11-07T22:56:15.018Z,2.60
2022-11-07T22:58:43.811Z,1.63
2022-11-07T23:01:16.679Z,1.90
2022-11-07T23:03:46.474Z,2.30
2022-11-07T23:06:15.264Z,3.30
2022-11-07T23:08:43.301Z,1.70
2022-11-07T23:14:05.931Z,1.63
2022-11-07T23:16:35.890Z,2.57
2022-11-07T23:19:08.342Z,1.93
2022-11-07T23:21:36.779Z,1.50
2022-11-07T23:24:05.648Z,2.40
2022-11-07T23:26:34.564Z,1.70
2022-11-07T23:29:08.990Z,1.67
2022-11-07T23:31:37.206Z,2.30
2022-11-07T23:34:06.466Z,1.50
2022-11-07T23:36:34.478Z,1.37
2022-11-07T23:39:05.743Z,3.07
2022-11-07T23:41:34.021Z,1.67
2022-11-07T23:44:02.183Z,2.10
2022-11-07T23:46:47.764Z,1.73
2022-11-07T23:49:34.706Z,4.77
2022-11-07T23:52:02.601Z,2.50
2022-11-07T23:54:48.308Z,3.13
2022-11-07T23:57:16.682Z,1.80
